^^
Meteo Knjazevac Station Historical Data
Daily Summary for April 9, 2021 Units:  English    Metric   Both
Daily Weekly Monthly Yearly Custom
  High: Low: Average:
Temperature: 94.5 °F 64.2 °F 78.2 °F
Dew Point: 74 °F 62.5 °F 68.5 °F
Humidity: 96% 49% 75%
Wind Speed: 6mph 0mph 1.9mph
Wind Gust: 13mph - -
Wind- - SSE
Pressure: 30.19 in 30.04 in -
Precipitation: 0.00 in    
Historical Graphs
 
 
Tabular Data for April 9, 2021
Time Temperature Dew Point Pressure Wind Wind Speed Wind Gust Humidity Rainfall Rate (Hourly) solar Conditions
00:00 72.1 °F 67 °F 30.18 in SW 1 mph 3 mph 84% 0.00 in 0 W/m2
00:10 72 °F 66.9 °F 30.18 in SW 1 mph 3 mph 84% 0.00 in 0 W/m2
00:20 71.5 °F 66.4 °F 30.18 in SSE 2 mph 5 mph 84% 0.00 in 0 W/m2
00:30 71.2 °F 66.5 °F 30.18 in SW 1 mph 5 mph 85% 0.00 in 0 W/m2
00:40 70.9 °F 66.1 °F 30.19 in Calm   3 mph 85% 0.00 in 0 W/m2
00:50 70.7 °F 66 °F 30.19 in NNE 1 mph 2 mph 85% 0.00 in 0 W/m2
01:00 70.5 °F 66.1 °F 30.19 in SE 2 mph 3 mph 86% 0.00 in 0 W/m2
01:10 70.3 °F 66 °F 30.19 in Calm   2 mph 86% 0.00 in 0 W/m2
01:20 70.2 °F 65.8 °F 30.19 in Calm   1 mph 86% 0.00 in 0 W/m2
01:30 70 °F 66.3 °F 30.19 in Calm   2 mph 88% 0.00 in 0 W/m2
01:40 70 °F 66.3 °F 30.19 in NNW 1 mph 3 mph 88% 0.00 in 0 W/m2
01:50 69.5 °F 65.8 °F 30.19 in Calm   3 mph 88% 0.00 in 0 W/m2
02:00 69.4 °F 65.7 °F 30.19 in Calm   2 mph 88% 0.00 in 0 W/m2
02:10 69.3 °F 65.6 °F 30.19 in North 1 mph 2 mph 88% 0.00 in 0 W/m2
02:20 69.1 °F 65.7 °F 30.19 in Calm   2 mph 89% 0.00 in 0 W/m2
02:30 68.7 °F 65.3 °F 30.19 in Calm   2 mph 89% 0.00 in 0 W/m2
02:40 68.5 °F 65.2 °F 30.19 in Calm   1 mph 89% 0.00 in 0 W/m2
02:50 68 °F 64.6 °F 30.19 in Calm   2 mph 89% 0.00 in 0 W/m2
03:00 67.8 °F 64.8 °F 30.19 in Calm     90% 0.00 in 0 W/m2
03:10 67.6 °F 64.6 °F 30.19 in Calm   2 mph 90% 0.00 in 0 W/m2
03:20 67.3 °F 64.3 °F 30.19 in Calm     90% 0.00 in 0 W/m2
03:30 67.2 °F 64.1 °F 30.19 in Calm   2 mph 90% 0.00 in 0 W/m2
03:40 66.7 °F 64 °F 30.19 in Calm   2 mph 91% 0.00 in 0 W/m2
03:50 66.6 °F 63.9 °F 30.19 in NNW 1 mph 2 mph 91% 0.00 in 0 W/m2
04:00 66.4 °F 63.7 °F 30.19 in NNW 1 mph 2 mph 91% 0.00 in 0 W/m2
04:10 66.2 °F 63.5 °F 30.19 in NNE 1 mph 3 mph 91% 0.00 in 0 W/m2
04:20 66.2 °F 64.1 °F 30.19 in NNE 1 mph 4 mph 93% 0.00 in 0 W/m2
04:30 65.9 °F 63.2 °F 30.19 in WNW 1 mph 2 mph 91% 0.00 in 0 W/m2
04:40 65.5 °F 63.4 °F 30.19 in Calm   2 mph 93% 0.00 in 0 W/m2
04:50 65.1 °F 63.3 °F 30.19 in WNW 1 mph 2 mph 94% 0.00 in 0 W/m2
05:00 64.9 °F 62.9 °F 30.19 in Calm   1 mph 93% 0.00 in 4 W/m2
05:10 64.9 °F 62.9 °F 30.19 in Calm   1 mph 93% 0.00 in 9 W/m2
05:20 64.8 °F 63 °F 30.19 in Calm   2 mph 94% 0.00 in 16 W/m2
05:30 64.6 °F 62.8 °F 30.19 in WNW 1 mph 2 mph 94% 0.00 in 25 W/m2
05:40 64.2 °F 62.5 °F 30.19 in West 1 mph 2 mph 94% 0.00 in 35 W/m2
05:50 64.2 °F 62.8 °F 30.19 in West 1 mph 4 mph 95% 0.00 in 45 W/m2
06:00 64.2 °F 62.8 °F 30.19 in West 1 mph 3 mph 95% 0.00 in 55 W/m2
06:10 64.2 °F 62.8 °F 30.19 in Calm   1 mph 95% 0.00 in 94 W/m2
06:20 64.2 °F 62.8 °F 30.19 in Calm   1 mph 95% 0.00 in 119 W/m2
06:30 64.4 °F 62.9 °F 30.19 in WSW 1 mph 2 mph 95% 0.00 in 145 W/m2
06:40 64.5 °F 63.1 °F 30.19 in West 1 mph 2 mph 95% 0.00 in 174 W/m2
06:50 64.8 °F 63.3 °F 30.19 in Calm   1 mph 95% 0.00 in 200 W/m2
07:00 65.1 °F 64 °F 30.19 in ENE 1 mph 4 mph 96% 0.00 in 233 W/m2
07:10 65.8 °F 64.4 °F 30.19 in East 1 mph 5 mph 95% 0.00 in 265 W/m2
07:20 66.5 °F 65 °F 30.19 in NE 1 mph 4 mph 95% 0.00 in 303 W/m2
07:30 67.1 °F 65.3 °F 30.19 in Calm   4 mph 94% 0.00 in 348 W/m2
07:40 67.6 °F 65.9 °F 30.19 in WNW 1 mph 2 mph 94% 0.00 in 382 W/m2
07:50 68.4 °F 66.3 °F 30.19 in Calm   3 mph 93% 0.00 in 421 W/m2
08:00 68.9 °F 66.7 °F 30.19 in NW 1 mph 5 mph 93% 0.00 in 453 W/m2
08:10 69.6 °F 66.9 °F 30.19 in NNE 3 mph 10 mph 91% 0.00 in 495 W/m2
08:20 70.5 °F 67.4 °F 30.19 in NNE 2 mph 5 mph 90% 0.00 in 527 W/m2
08:30 71.4 °F 68 °F 30.18 in NNE 1 mph 8 mph 89% 0.00 in 559 W/m2
08:40 72.3 °F 68.5 °F 30.18 in ENE 2 mph 7 mph 88% 0.00 in 589 W/m2
08:50 73 °F 68.6 °F 30.18 in NE 1 mph 6 mph 86% 0.00 in 625 W/m2
09:00 74.4 °F 69.6 °F 30.17 in NNE 2 mph 6 mph 85% 0.00 in 652 W/m2
09:10 76.2 °F 70.7 °F 30.17 in North 1 mph 5 mph 83% 0.00 in 679 W/m2
09:20 77.7 °F 71.1 °F 30.17 in North 2 mph 5 mph 80% 0.00 in 705 W/m2
09:30 79.3 °F 71.8 °F 30.17 in NNE 2 mph 5 mph 78% 0.00 in 730 W/m2
09:40 80.6 °F 71.5 °F 30.16 in NE 1 mph 5 mph 74% 0.00 in 754 W/m2
09:50 81.8 °F 71.9 °F 30.16 in NE 2 mph 7 mph 72% 0.00 in 776 W/m2
10:00 82.2 °F 71.5 °F 30.16 in NE 1 mph 5 mph 70% 0.00 in 798 W/m2
10:10 83.3 °F 72 °F 30.16 in SW 3 mph 6 mph 69% 0.00 in 819 W/m2
10:20 84 °F 72.3 °F 30.15 in South 2 mph 7 mph 68% 0.00 in 838 W/m2
10:30 84.7 °F 71.7 °F 30.15 in NNW 3 mph 6 mph 65% 0.00 in 857 W/m2
10:40 85.5 °F 71.9 °F 30.15 in North 3 mph 9 mph 64% 0.00 in 874 W/m2
10:50 86 °F 72.4 °F 30.15 in North 5 mph 10 mph 64% 0.00 in 202 W/m2
11:00 86.9 °F 72.3 °F 30.14 in North 2 mph 11 mph 62% 0.00 in 904 W/m2
11:10 87.1 °F 71.5 °F 30.14 in North 3 mph 10 mph 60% 0.00 in 917 W/m2
11:20 87.2 °F 71.6 °F 30.13 in NW 3 mph 8 mph 60% 0.00 in 263 W/m2
11:30 88.1 °F 72.5 °F 30.13 in North 2 mph 10 mph 60% 0.00 in 939 W/m2
11:40 88.7 °F 72 °F 30.13 in North 5 mph 10 mph 58% 0.00 in 948 W/m2
11:50 88.9 °F 71.7 °F 30.13 in NNE 5 mph 9 mph 57% 0.00 in 955 W/m2
12:00 89.1 °F 71.8 °F 30.12 in North 2 mph 8 mph 57% 0.00 in 961 W/m2
12:10 89.4 °F 71.1 °F 30.12 in North 3 mph 8 mph 55% 0.00 in 965 W/m2
12:20 89.4 °F 72.2 °F 30.12 in NNW 2 mph 7 mph 57% 0.00 in 968 W/m2
12:30 89.9 °F 73.2 °F 30.11 in North 5 mph 8 mph 58% 0.00 in 474 W/m2
12:40 90.5 °F 72.1 °F 30.11 in North 6 mph 10 mph 55% 0.00 in 553 W/m2
12:50 90.6 °F 73.3 °F 30.10 in NNW 6 mph 12 mph 57% 0.00 in 896 W/m2
13:00 91 °F 72.6 °F 30.10 in North 6 mph 13 mph 55% 0.00 in 395 W/m2
13:10 91 °F 72.6 °F 30.10 in North 3 mph 12 mph 55% 0.00 in 960 W/m2
13:20 91.7 °F 73.3 °F 30.10 in North 5 mph 9 mph 55% 0.00 in 954 W/m2
13:30 92.3 °F 73.2 °F 30.09 in NNE 3 mph 8 mph 54% 0.00 in 946 W/m2
13:40 92.5 °F 73.4 °F 30.09 in NNE 3 mph 13 mph 54% 0.00 in 937 W/m2
13:50 92.8 °F 73.7 °F 30.09 in North 5 mph 8 mph 54% 0.00 in 926 W/m2
14:00 93.2 °F 73.5 °F 30.09 in North 2 mph 8 mph 53% 0.00 in 914 W/m2
14:10 93.4 °F 73.1 °F 30.08 in NNE 6 mph 13 mph 52% 0.00 in 901 W/m2
14:20 93.2 °F 73.5 °F 30.08 in North 3 mph 12 mph 53% 0.00 in 886 W/m2
14:30 93.7 °F 73.4 °F 30.08 in North 5 mph 12 mph 52% 0.00 in 870 W/m2
14:40 93.6 °F 73.3 °F 30.08 in North 3 mph 11 mph 52% 0.00 in 853 W/m2
14:50 93.9 °F 72.5 °F 30.07 in North 5 mph 10 mph 50% 0.00 in 834 W/m2
15:00 94.3 °F 74 °F 30.07 in North 2 mph 9 mph 52% 0.00 in 815 W/m2
15:10 94.3 °F 72.8 °F 30.06 in North 5 mph 10 mph 50% 0.00 in 794 W/m2
15:20 94.4 °F 72.9 °F 30.06 in North 2 mph 9 mph 50% 0.00 in 772 W/m2
15:30 94.5 °F 72.9 °F 30.06 in North 2 mph 12 mph 50% 0.00 in 749 W/m2
15:40 94.3 °F 72.8 °F 30.06 in ENE 3 mph 9 mph 50% 0.00 in 724 W/m2
15:50 94.3 °F 72.2 °F 30.06 in NE 3 mph 8 mph 49% 0.00 in 699 W/m2
16:00 94.3 °F 72.8 °F 30.06 in North 5 mph 12 mph 50% 0.00 in 673 W/m2
16:10 94.3 °F 72.8 °F 30.06 in NNE 3 mph 9 mph 50% 0.00 in 647 W/m2
16:20 94.3 °F 72.8 °F 30.06 in NNW 2 mph 9 mph 50% 0.00 in 619 W/m2
16:30 94.1 °F 72 °F 30.06 in NNE 3 mph 8 mph 49% 0.00 in 591 W/m2
16:40 94.1 °F 72.6 °F 30.05 in ENE 2 mph 10 mph 50% 0.00 in 562 W/m2
16:50 93.6 °F 71.5 °F 30.05 in ENE 3 mph 12 mph 49% 0.00 in 533 W/m2
17:00 93.2 °F 71.2 °F 30.04 in ENE 5 mph 13 mph 49% 0.00 in 503 W/m2
17:10 92.8 °F 71.5 °F 30.04 in NE 3 mph 10 mph 50% 0.00 in 345 W/m2
Knjazevac, Serbia
Compliments of Weather Underground - 2 mb